General Aviation Weather

Text Reports

Enter one or more of the following location identifiers separated by a space:

Zip Code, Four-Character ICAO or Three-Character IATA airport codes.

METAR - Aviation Routine Weather Report
KCUL - Carmi, Illinois
Updated at 4:57 AM GMT on May 24, 2015 (11:57 PM CDT):
METAR KCUL 240457Z AUTO 00000KT 10SM CLR 17/11 A3019 RMK AO2
TAF - Terminal Area Forecast
KCUL - Carmi, Illinois
Updated at 4:57 AM GMT on May 24, 2015 (11:57 PM CDT):
No TAF is currently available for this location.
Decoded:
No decoded TAF is available.
PIREP - Pilot Weather Report
KCUL - Carmi, Illinois
Updated at 4:57 AM GMT on May 24, 2015 (11:57 PM CDT):
No PIREP is currently available for this location.
AIRMET - Airmens Meteorological Information
KCUL - Carmi, Illinois
Updated at 4:57 AM GMT on May 24, 2015 (11:57 PM CDT):
No AIRMET is currently available for this location.
SIGMET - Significant Meteorological Information
KCUL - Carmi, Illinois
Updated at 4:57 AM GMT on May 24, 2015 (11:57 PM CDT):
No SIGMET is currently available for this location.
NOTAM - Notice to Airmen
KCUL - Carmi, Illinois
Updated at 4:57 AM GMT on May 24, 2015 (11:57 PM CDT):
No NOTAM is currently available for this location.
Forecast Area
KCUL - Carmi, Illinois
Updated at 4:57 AM GMT on May 24, 2015 (11:57 PM CDT):
No NOTAM is currently available for this location.
Aviation Weather Maps